Sonic Adventure (DX): Time Rankings

Records: Times | Rings | Scores | Races | Bosses | Freestyle
Leaders: Times | Rings | Scores | Races | Bosses | Freestyle | Overall
Rank Player Percent Points Date
1 Gamepro011 99.4% 31 04-18-18
2 Sonicspeedruner 98.4% 89 04-18-18
3 Dashjump 94.6% 303 04-18-18
4 Jawzun 94.6% 305 04-18-18
5 DarkPolarNight 93.7% 357 04-18-18
6 drminus 91.5% 481 04-18-18
7 F-Man 91.4% 487 04-18-18
8 THC98 91.0% 509 04-18-18
9 ike6252 89.0% 622 04-18-18
10 Avento128bits 88.7% 643 04-18-18
11 francisco 88.4% 658 04-18-18
12 ethmar 87.9% 687 04-18-18
13 DarkspinesSonic 87.9% 689 04-18-18
14 Marth 87.8% 694 04-18-18
15 frankoredstrato 86.4% 772 04-18-18
16 TheRealShadnic 84.8% 865 04-18-18
17 chainchumper 84.6% 874 04-18-18
18 Paragod 83.7% 928 04-18-18
19 HyperSonic7701 83.5% 940 04-18-18
20 Calfd 83.1% 958 04-18-18
21 xXMegaManXx 80.5% 1111 04-18-18
22 InferSaime 80.3% 1118 04-18-18
23 Coolfansonic 80.1% 1129 04-18-18
24 Stefan 78.9% 1199 04-18-18
25 PfoSonic 78.5% 1224 04-18-18
26 bertin 76.7% 1325 04-18-18
27 yoshifan 76.2% 1356 04-18-18
28 Dave Cramer 74.6% 1446 04-18-18
29 RPGnutter 74.3% 1462 04-18-18
30 sonicam 72.7% 1555 04-18-18
31 Cybrax 72.4% 1568 04-18-18
32 Ring Rush 69.8% 1717 04-18-18
33 Nim 69.1% 1755 04-18-18
34 mike89 69.0% 1763 04-18-18
35 NintenDan 68.8% 1777 04-18-18
36 a_moustache 67.5% 1848 04-18-18
37 chaos shadow 65.5% 1962 04-18-18
38 SkyLights 65.3% 1976 04-18-18
39 Combo 63.9% 2054 04-18-18
40 Dekuboy 62.2% 2150 04-18-18
41 SADXTryHard 61.7% 2178 04-18-18
42 P1 Pause 61.0% 2222 04-18-18
43 Groudon199 59.1% 2329 04-18-18
44 Game_Complete 58.5% 2361 04-18-18
45 AxlThunder 58.4% 2367 04-18-18
46 Shadow Jacky 58.4% 2368 04-18-18
47 VMU Player Banned 57.5% 2421 04-18-18
48 Thorn 57.1% 2444 04-18-18
49 SB737 56.0% 2504 04-18-18
50 The Knuckles Chao 55.9% 2508 04-18-18
51 SadisticMystic 55.6% 2528 04-18-18
52 Chao_Fan 55.5% 2530 04-18-18
53 Parax 55.3% 2545 04-18-18
54 Mastakirby 55.1% 2553 04-18-18
55 KinkyCadence 54.5% 2587 04-18-18
56 LittleBigness 54.5% 2589 04-18-18
57 mauserman 54.4% 2595 04-18-18
58 OmegaDJ 54.4% 2597 04-18-18
59 Psyknux 54.1% 2613 04-18-18
60 Auriman1 53.9% 2626 04-18-18
61 magnum12 53.7% 2637 04-18-18
62 Niczur 53.5% 2645 04-18-18
63 Turbos 53.3% 2658 04-18-18
64 GerbilSoft 52.7% 2691 04-18-18
65 GreatStar 52.5% 2705 04-18-18
66 Webber3000 52.1% 2727 04-18-18
67 Hipertails12 51.2% 2780 04-18-18
68 N 51.0% 2787 04-18-18
69 James_Bertolli 48.9% 2907 04-18-18
70 Cream147 48.5% 2931 04-18-18
71 welldooder64 48.0% 2959 04-18-18
72 Skylace 47.9% 2964 04-18-18
73 Quartz 47.5% 2989 04-18-18
74 Omega Rafael Santos 47.5% 2991 04-18-18
75 Psymar 47.3% 3002 04-18-18
76 Diamond 47.1% 3010 04-18-18
77 SonicWinDX 46.5% 3043 04-18-18
78 teamblackarms 46.2% 3065 04-18-18
79 Andrea Ritsu 45.5% 3101 04-18-18
80 buddychaos0415 45.1% 3125 04-18-18
81 SilverSonic 44.8% 3144 04-18-18
82 paulie9990 44.5% 3162 04-18-18
83 SilvertheAlmighty 44.1% 3184 04-18-18
84 itsPersonnal 43.6% 3208 04-18-18
85 WeegeeZV 43.6% 3209 04-18-18
86 metanightmare22 43.3% 3226 04-18-18
87 lordmetalsonic 41.2% 3349 04-18-18
88 Arch 40.7% 3376 04-18-18
89 Termon 39.9% 3423 04-18-18
90 videogamemaster777 39.8% 3429 04-18-18
91 supersonicfan 39.5% 3446 04-18-18
92 Drakodan 38.9% 3476 04-18-18
93 Kanimayo_Jp 38.7% 3491 04-18-18
94 LilZero 38.7% 3492 04-18-18
95 supersonic465 38.4% 3508 04-18-18
96 FuzZerd 38.3% 3514 04-18-18
97 JamminX42 37.8% 3544 04-18-18
98 eggFL 37.7% 3546 04-18-18
99 BigAL49 37.5% 3558 04-18-18
100 Don 37.0% 3589 04-18-18
101 danieldude 36.9% 3594 04-18-18
102 Siavash Tazari 36.2% 3632 04-18-18
103 Fr3nZy 35.7% 3659 04-18-18
104 f0rever_zer0 35.2% 3689 04-18-18
105 Cod4Scopes 35.0% 3702 04-18-18
106 Cyan Ryan 34.5% 3728 04-18-18
107 LinksDarkArrows 34.2% 3749 04-18-18
108 Therio 34.0% 3759 04-18-18
109 Austinf 33.5% 3784 04-18-18
110 elecmouse101 33.3% 3796 04-18-18
111 Staf 33.1% 3811 04-18-18
112 MiStEr_ShAoLiN 32.7% 3831 04-18-18
113 Twilisailor 32.5% 3843 04-18-18
114 ModifiedMonkee 32.3% 3854 04-18-18
115 videogamer1014 32.2% 3863 04-18-18
116 BrokenArthritis 32.1% 3865 04-18-18
117 Xia 31.7% 3891 04-18-18
118 AC-Tygo 31.4% 3908 04-18-18
119 welshmoose05 31.2% 3916 04-18-18
120 OddCook 30.6% 3953 04-18-18
121 The Great Lord Mick 30.2% 3972 04-18-18
122 Aitamen 29.8% 3999 04-18-18
122 Mcshuggets 29.8% 3999 04-18-18
124 Maxinfamily 29.7% 4005 04-18-18
125 Matt_TY 29.4% 4022 04-18-18
126 dabestgamer 29.1% 4038 04-18-18
127 joecoolgames 29.0% 4040 04-18-18
128 SuperBlitzCraig 28.6% 4063 04-18-18
129 Irregular Zero 28.5% 4073 04-18-18
130 Shadowthegreat 27.7% 4117 04-18-18
131 SuperSonic101 27.7% 4118 04-18-18
132 superjupi 27.7% 4119 04-18-18
133 Rolken 27.3% 4140 04-18-18
134 thewaytodawnnn 27.0% 4159 04-18-18
135 sonamyfan666 26.8% 4168 04-18-18
136 Hunters13 26.7% 4175 04-18-18
137 koinu93 26.7% 4176 04-18-18
138 iarebored 26.6% 4181 04-18-18
139 Spinballwizard 26.6% 4182 04-18-18
140 SaviourDC 26.4% 4190 04-18-18
141 SonicKnuckles 26.4% 4193 04-18-18
142 EngiNerd 25.3% 4251 04-18-18
143 adf 25.2% 4257 04-18-18
144 Megaman EXE565 24.5% 4299 04-18-18
145 The T 24.2% 4314 04-18-18
146 Sonic Singularity 23.7% 4343 04-18-18
147 Platformer 23.3% 4368 04-18-18
148 SeaWolf 23.0% 4383 04-18-18
149 Pokemonmaster888 23.0% 4385 04-18-18
149 timpkmn89 23.0% 4385 04-18-18
151 Swift Hobo 22.5% 4413 04-18-18
152 Sondow 22.3% 4426 04-18-18
153 Rickyman48 21.9% 4449 04-18-18
154 KitsuneYamaro 21.6% 4463 04-18-18
155 FoxBoy 21.4% 4477 04-18-18
156 TFEC Headshot 20.8% 4509 04-18-18
157 Kogen Player Banned 20.8% 4511 04-18-18
158 Jerzia 20.5% 4525 04-18-18
159 Starlight Sable 20.0% 4555 04-18-18
160 HyperSonic64 19.6% 4577 04-18-18
161 IsisDazs 19.4% 4590 04-18-18
162 Powerjohn25 19.2% 4601 04-18-18
163 crazy1993 19.1% 4604 04-18-18
164 andres430 19.1% 4609 04-18-18
165 SonicU260 18.1% 4664 04-18-18
166 MPit08 17.6% 4690 04-18-18
167 SonicAD 17.5% 4697 04-18-18
168 Swinkly 17.5% 4700 04-18-18
169 sonicd5 17.2% 4716 04-18-18
170 iSonicKid2K 17.0% 4725 04-18-18
171 dShadow 16.9% 4730 04-18-18
172 Cutiefox 16.4% 4758 04-18-18
173 Chawkk 16.4% 4761 04-18-18
174 Monkeh 16.1% 4779 04-18-18
175 Miles9999 16.0% 4784 04-18-18
176 Crispian 15.8% 4797 04-18-18
177 DaDude 15.3% 4826 04-18-18
178 Drflash55 15.1% 4832 04-18-18
179 Bass 15.0% 4840 04-18-18
180 Cruizer 14.8% 4852 04-18-18
181 Badlex727 14.8% 4853 04-18-18
182 Destroyer121121 14.7% 4855 04-18-18
183 superiorsonic 14.5% 4868 04-18-18
184 neaolas 14.5% 4871 04-18-18
185 zapp 14.4% 4877 04-18-18
186 Yish 14.3% 4880 04-18-18
187 UninspiredUsername 14.2% 4887 04-18-18
188 gamefreak1292 13.8% 4909 04-18-18
189 Cooljay 13.7% 4917 04-18-18
190 Sora_yx 13.3% 4938 04-18-18
191 Chaos_Overlord 12.8% 4965 04-18-18
192 GarnetPrincess 12.6% 4979 04-18-18
193 Valfore 12.4% 4990 04-18-18
194 Dage4Aquatic 12.0% 5012 04-18-18
195 soniccoloursunleashed 12.0% 5014 04-18-18
196 ShinigamiMachine 11.7% 5027 04-18-18
197 booo95 11.4% 5046 04-18-18
198 Sonicsuperstar1 11.3% 5053 04-18-18
199 SirTobbii 11.0% 5071 04-18-18
200 sonicspeed 10.9% 5073 04-18-18
201 FocusSight64 10.8% 5079 04-18-18
201 Werey 10.8% 5079 04-18-18
203 Mo Player Banned 10.7% 5088 04-18-18
204 Jua Rever 10.6% 5090 04-18-18
205 Venick409 9.6% 5146 04-18-18
206 Sithwarrior26 9.6% 5148 04-18-18
207 nman36 9.6% 5150 04-18-18
208 ingx24 9.1% 5177 04-18-18
209 CyberShadow 9.0% 5185 04-18-18
210 dekki1234 8.9% 5187 04-18-18
211 Fozer 8.6% 5203 04-18-18
212 Colomb_30 8.6% 5206 04-18-18
213 Egor305 8.5% 5213 04-18-18
214 Regano1000 8.3% 5222 04-18-18
215 1stKirbyever 8.1% 5235 04-18-18
216 douglas 8.1% 5236 04-18-18
217 nuckrieg 7.9% 5244 04-18-18
218 TimTH 7.8% 5251 04-18-18
219 Brian_pso 7.7% 5256 04-18-18
220 wheatrich 7.5% 5266 04-18-18
221 Zip 7.4% 5271 04-18-18
222 Th4tN1nj4Turtl3 7.4% 5272 04-18-18
223 TakaRikka 7.3% 5277 04-18-18
224 niscool 7.2% 5287 04-18-18
225 Mariosonic15 7.0% 5297 04-18-18
226 ieatatsonic 6.7% 5313 04-18-18
226 MStitomix 6.7% 5313 04-18-18
226 Triseena 6.7% 5313 04-18-18
229 HermitHelmet 6.6% 5317 04-18-18
230 Artie 6.3% 5336 04-18-18
231 Cort_pso 6.3% 5337 04-18-18
232 Got4n 6.3% 5338 04-18-18
233 BlankTH 6.0% 5352 04-18-18
234 Jose_15 6.0% 5355 04-18-18
235 SuperSonicfan9595 5.7% 5369 04-18-18
236 Richied 5.6% 5374 04-18-18
237 Ace747 5.5% 5380 04-18-18
238 HHNNBBHHN 5.4% 5388 04-18-18
239 Aiko 5.3% 5396 04-18-18
239 Paixii 5.3% 5396 04-18-18
241 slade23 5.0% 5410 04-18-18
242 BallzeH 4.9% 5414 04-18-18
242 Mankster101 4.9% 5414 04-18-18
244 ArcticDragon 4.8% 5420 04-18-18
244 FSSRandomvids 4.8% 5420 04-18-18
246 BecauseWarAnvil 4.8% 5421 04-18-18
246 PsyBorg 4.8% 5421 04-18-18
248 Jamixesa 4.7% 5426 04-18-18
249 Nickson98 4.6% 5431 04-18-18
250 Crydio 4.5% 5437 04-18-18
251 TheUltraBlur 4.4% 5443 04-18-18
252 MarewBFN 4.2% 5454 04-18-18
253 tal39h 4.2% 5455 04-18-18
254 stanski 4.2% 5456 04-18-18
255 ALundstrom10 4.2% 5458 04-18-18
256 knuckles_sonic8 4.0% 5470 04-18-18
257 Blue Infamy 3.9% 5472 04-18-18
258 p0ker 3.9% 5473 04-18-18
259 ErrortheCucco 3.7% 5483 04-18-18
260 Rikum22 3.7% 5486 04-18-18
261 sonic1001 3.5% 5494 04-18-18
262 TheChaosEmeraIds 3.5% 5497 04-18-18
263 syco1098 3.4% 5501 04-18-18
264 AJSIV 3.4% 5503 04-18-18
265 Sonic the Hedgehod16 3.3% 5506 04-18-18
266 ASINISTERTACO 3.2% 5512 04-18-18
267 sonicfan9 3.1% 5518 04-18-18
268 MK 3.0% 5527 04-18-18
268 themachoman202 3.0% 5527 04-18-18
270 Fivavoa 2.8% 5537 04-18-18
271 Mr. Jones 2.7% 5539 04-18-18
272 BlackArmsShadow 2.7% 5541 04-18-18
272 djmat 2.7% 5541 04-18-18
274 arcfx1985 2.7% 5542 04-18-18
275 ptorflaxendrosis 2.6% 5545 04-18-18
276 Sonique Hedgehog 2.6% 5546 04-18-18
277 FlandreScarlet9999vr 2.5% 5550 04-18-18
278 Zeldocto 2.5% 5552 04-18-18
279 KaM Mark MaK 2.5% 5555 04-18-18
280 BeeAwwb 2.4% 5556 04-18-18
281 ShadouZaHejjihoggu 2.3% 5563 04-18-18
282 darkstarblaze 2.3% 5565 04-18-18
283 Sarger001 2.2% 5568 04-18-18
284 Sonic The Star 2.2% 5571 04-18-18
285 darkersupershadic 2.2% 5572 04-18-18
286 SpiritDragon1995 2.1% 5573 04-18-18
287 Grady219 2.0% 5579 04-18-18
287 sonic29887 2.0% 5579 04-18-18
289 BioShadow 2.0% 5581 04-18-18
290 shadowblast63 Player Banned 1.9% 5585 04-18-18
291 Jawaah 1.9% 5587 04-18-18
292 Antek 1.9% 5589 04-18-18
293 Klaus 1.8% 5591 04-18-18
294 SkyBon 1.7% 5596 04-18-18
295 Shanekilz 1.4% 5613 04-18-18
296 isaihtb11 1.4% 5617 04-18-18
297 zaktu40 1.3% 5619 04-18-18
298 OhNoes! 1.3% 5620 04-18-18
299 gaara1234 1.3% 5622 04-18-18
300 S-MS32X-S 1.2% 5626 04-18-18
301 MastaToken 1.2% 5629 04-18-18
302 Mister_Slick 1.0% 5636 04-18-18
303 ArthurVGCP 1.0% 5637 04-18-18
304 Rush Hero 1.0% 5639 04-18-18
304 Sonic06Fan 1.0% 5639 04-18-18
306 ChaosNexuss 1.0% 5640 04-18-18
307 SonicMega167 0.9% 5645 04-18-18
308 oTaiIilLsS 0.8% 5647 04-18-18
309 gamed00d 0.8% 5648 04-18-18
309 SilverK 0.8% 5648 04-18-18
311 Heroes_Hater 0.7% 5656 04-18-18
312 Redd 0.7% 5658 04-18-18
313 Burningskull123 0.5% 5664 04-18-18
314 Sonicontherun 0.4% 5675 04-18-18
315 antiwwe 0.2% 5681 04-18-18
316 Iwannabelink 0.2% 5683 04-18-18
317 Genuine Hedgehog 0.2% 5684 04-18-18
317 SonataSpinDash 0.2% 5684 04-18-18
319 dragondragon18 0.1% 5688 04-18-18
320 SonicK100 0.1% 5690 04-18-18
321 Tyrouble 0.0% 5695 04-18-18
322 LancexExWx 0.0% 5698 04-18-18
322 neji_hyuuga 0.0% 5698 04-18-18
322 Over 0.0% 5698 04-18-18
322 sdj6707 Player Banned 0.0% 5698 04-18-18
322 Tran Sonic Fan Player Banned 0.0% 5698 04-18-18

This page is using the New Data Table System. [FUTURE]

Game ID: 3 | Category ID: 1
Hits: 8,915 | Hits This Month: 15 | DB Calls: 24 | Mem Usage: 5.47 MB | Time: 0.13s | Printable

The Sonic Center v3.9
Copyright 2003-2011 by The Sonic Center Team.